createdAt,value
2023-03-19T00:00:53.294Z,66.38
2023-03-19T00:03:22.903Z,66.44
2023-03-19T00:05:53.007Z,66.64
2023-03-19T00:08:22.137Z,66.77
2023-03-19T00:10:50.477Z,66.79
2023-03-19T00:13:19.664Z,66.86
2023-03-19T00:15:47.281Z,66.94
2023-03-19T00:18:15.731Z,66.94
2023-03-19T00:20:44.194Z,66.97
2023-03-19T00:23:12.232Z,67.21
2023-03-19T00:25:40.282Z,67.39
2023-03-19T00:28:08.682Z,67.25
2023-03-19T00:30:36.682Z,67.46
2023-03-19T00:33:04.426Z,67.44
2023-03-19T00:35:32.519Z,67.66
2023-03-19T00:38:00.576Z,67.60
2023-03-19T00:40:28.184Z,67.56
2023-03-19T00:42:55.989Z,67.59
2023-03-19T00:45:23.837Z,67.70
2023-03-19T00:47:51.653Z,67.69
2023-03-19T00:50:19.562Z,67.75
2023-03-19T00:52:47.380Z,67.85
2023-03-19T00:55:15.174Z,67.96
2023-03-19T00:57:43.134Z,67.99
2023-03-19T01:00:12.104Z,68.09
2023-03-19T01:02:39.936Z,67.98
2023-03-19T01:05:09.008Z,68.12
2023-03-19T01:07:37.033Z,68.09
2023-03-19T01:10:05.742Z,68.10
2023-03-19T01:12:33.735Z,68.20
2023-03-19T01:15:02.027Z,68.16
2023-03-19T01:17:29.777Z,68.30
2023-03-19T01:19:57.808Z,68.33
2023-03-19T01:22:25.744Z,68.31
2023-03-19T01:24:55.518Z,68.29
2023-03-19T01:27:23.612Z,68.30
2023-03-19T01:29:51.941Z,68.26
2023-03-19T01:32:38.081Z,68.34
2023-03-19T01:35:09.188Z,68.38
2023-03-19T01:37:37.633Z,68.34
2023-03-19T01:40:08.768Z,68.44
2023-03-19T01:43:14.734Z,68.67
2023-03-19T01:45:50.029Z,68.63
2023-03-19T01:48:46.324Z,68.70
2023-03-19T01:51:20.722Z,68.78
2023-03-19T01:54:13.098Z,68.81
2023-03-19T01:56:57.017Z,68.82
2023-03-19T01:59:34.790Z,68.88
2023-03-19T02:02:29.959Z,68.91
2023-03-19T02:05:12.619Z,68.88
2023-03-19T02:07:43.912Z,68.95
2023-03-19T02:10:15.478Z,69.05
2023-03-19T02:12:43.469Z,69.05
2023-03-19T02:15:12.101Z,69.29
2023-03-19T02:17:41.758Z,69.16
2023-03-19T02:20:36.359Z,69.12
2023-03-19T02:23:29.496Z,69.23
2023-03-19T02:26:04.501Z,69.34
2023-03-19T02:28:34.523Z,69.35
2023-03-19T02:31:02.407Z,69.36
2023-03-19T02:33:30.780Z,69.48
2023-03-19T02:35:59.044Z,69.43
2023-03-19T02:38:27.872Z,69.52
2023-03-19T02:41:05.559Z,69.62
2023-03-19T02:43:36.931Z,69.79
2023-03-19T02:46:09.894Z,69.78
2023-03-19T02:48:38.107Z,69.99
2023-03-19T02:51:06.339Z,70.03
2023-03-19T02:53:34.657Z,70.04
2023-03-19T02:56:02.900Z,70.08
2023-03-19T02:58:30.901Z,70.01
2023-03-19T03:00:58.701Z,70.08
2023-03-19T03:03:27.002Z,70.05
2023-03-19T03:05:54.666Z,70.31
2023-03-19T03:08:22.381Z,70.11
2023-03-19T03:10:50.089Z,70.04
2023-03-19T03:13:18.236Z,70.16
2023-03-19T03:15:46.165Z,70.18
2023-03-19T03:18:13.994Z,70.39
2023-03-19T03:20:41.502Z,70.37
2023-03-19T03:23:09.495Z,70.48
2023-03-19T03:25:37.394Z,70.55
2023-03-19T03:28:05.354Z,70.71
2023-03-19T03:30:33.413Z,70.68
2023-03-19T03:33:01.446Z,70.66
2023-03-19T03:35:29.223Z,70.62
2023-03-19T03:37:57.499Z,70.58
2023-03-19T03:40:25.340Z,70.61
2023-03-19T03:42:53.494Z,70.63
2023-03-19T03:45:21.831Z,70.65
2023-03-19T03:47:50.866Z,70.68
2023-03-19T03:50:18.675Z,70.68
2023-03-19T03:52:47.508Z,70.82
2023-03-19T03:55:15.642Z,70.99
2023-03-19T03:57:43.370Z,70.86
2023-03-19T04:00:12.496Z,70.97
2023-03-19T04:02:44.054Z,71.09
2023-03-19T04:05:13.806Z,71.16
2023-03-19T04:07:42.262Z,71.22
2023-03-19T04:10:12.330Z,71.26
2023-03-19T04:12:41.207Z,71.34
2023-03-19T04:15:10.846Z,71.35
2023-03-19T04:17:40.107Z,71.39
2023-03-19T04:20:10.699Z,71.46
2023-03-19T04:22:38.578Z,71.48
2023-03-19T04:25:07.716Z,71.72
2023-03-19T04:27:36.190Z,71.50
2023-03-19T04:30:05.444Z,71.77
2023-03-19T04:32:34.954Z,71.63
2023-03-19T04:35:03.411Z,71.67
2023-03-19T04:37:31.211Z,71.79
2023-03-19T04:39:59.004Z,71.80
2023-03-19T04:42:26.719Z,71.74
2023-03-19T04:44:59.282Z,71.86
2023-03-19T04:47:27.132Z,71.89
2023-03-19T04:49:56.778Z,73.06
2023-03-19T04:52:24.886Z,73.44
2023-03-19T04:54:52.879Z,73.38
2023-03-19T04:57:21.000Z,73.27
2023-03-19T04:59:48.908Z,73.24
2023-03-19T05:02:16.692Z,71.68
2023-03-19T05:04:44.267Z,71.20
2023-03-19T05:07:13.775Z,69.75
2023-03-19T05:09:43.206Z,68.71
2023-03-19T05:12:12.281Z,65.49
2023-03-19T05:14:42.029Z,63.16
2023-03-19T05:17:15.106Z,60.64
2023-03-19T05:19:44.674Z,58.88
2023-03-19T05:22:12.955Z,55.71
2023-03-19T05:24:41.755Z,53.81
2023-03-19T05:27:10.702Z,51.77
2023-03-19T05:29:41.023Z,49.77
2023-03-19T05:32:15.372Z,48.65
2023-03-19T05:34:44.109Z,47.10
2023-03-19T05:37:12.688Z,45.55
2023-03-19T05:39:41.304Z,44.23
2023-03-19T05:42:10.406Z,44.03
2023-03-19T05:44:38.131Z,42.82
2023-03-19T05:47:13.374Z,41.13
2023-03-19T05:49:42.470Z,41.22
2023-03-19T05:52:10.919Z,41.29
2023-03-19T05:54:41.050Z,41.68
2023-03-19T05:57:17.540Z,40.33
2023-03-19T05:59:47.298Z,40.02
2023-03-19T06:02:27.670Z,39.75
2023-03-19T06:04:57.426Z,39.57
2023-03-19T06:07:27.588Z,39.78
2023-03-19T06:09:57.277Z,40.40
2023-03-19T06:12:25.492Z,40.94
2023-03-19T06:15:08.945Z,41.18
2023-03-19T06:17:44.143Z,41.71
2023-03-19T06:20:13.180Z,41.90
2023-03-19T06:22:41.140Z,41.89
2023-03-19T06:25:09.343Z,41.66
2023-03-19T06:27:38.178Z,42.05
2023-03-19T06:30:16.696Z,42.13
2023-03-19T06:32:44.639Z,42.44
2023-03-19T06:35:16.576Z,41.60
2023-03-19T06:37:45.952Z,42.58
2023-03-19T06:40:14.107Z,42.58
2023-03-19T06:42:46.914Z,42.69
2023-03-19T06:45:17.863Z,43.64
2023-03-19T06:47:47.093Z,42.93
2023-03-19T06:50:18.667Z,43.91
2023-03-19T06:52:46.462Z,43.99
2023-03-19T06:55:14.403Z,43.50
2023-03-19T06:57:42.080Z,43.27
2023-03-19T07:00:12.531Z,42.10
2023-03-19T07:02:40.419Z,41.54
2023-03-19T07:05:08.604Z,40.61
2023-03-19T07:07:36.503Z,39.82
2023-03-19T07:10:06.094Z,39.68
2023-03-19T07:12:33.914Z,39.00
2023-03-19T07:15:01.597Z,38.15
2023-03-19T07:17:29.580Z,37.07
2023-03-19T07:19:57.602Z,36.45
2023-03-19T07:22:25.235Z,35.74
2023-03-19T07:24:52.763Z,36.40
2023-03-19T07:27:20.670Z,36.53
2023-03-19T07:29:48.369Z,36.62
2023-03-19T07:32:15.976Z,36.06
2023-03-19T07:34:43.689Z,35.43
2023-03-19T07:37:11.662Z,36.23
2023-03-19T07:39:39.249Z,35.89
2023-03-19T07:42:07.609Z,35.70
2023-03-19T07:44:35.610Z,35.52
2023-03-19T07:47:03.348Z,35.85
2023-03-19T07:49:31.161Z,35.82
2023-03-19T07:51:58.752Z,35.45
2023-03-19T07:54:26.581Z,35.75
2023-03-19T07:56:54.101Z,35.67
2023-03-19T07:59:22.045Z,34.10
2023-03-19T08:01:49.927Z,35.77
2023-03-19T08:04:17.751Z,35.73
2023-03-19T08:06:45.542Z,35.94
2023-03-19T08:09:13.681Z,36.04
2023-03-19T08:11:41.407Z,35.33
2023-03-19T08:14:08.949Z,35.23
2023-03-19T08:16:36.776Z,35.43
2023-03-19T08:19:04.446Z,35.51
2023-03-19T08:21:33.166Z,35.38
2023-03-19T08:24:03.084Z,35.09
2023-03-19T08:26:32.305Z,34.87
2023-03-19T08:29:00.947Z,33.51
2023-03-19T08:31:28.330Z,34.15
2023-03-19T08:33:55.974Z,33.57
2023-03-19T08:36:23.361Z,34.07
2023-03-19T08:38:52.652Z,34.38
2023-03-19T08:41:21.369Z,34.02
2023-03-19T08:43:49.669Z,34.18
2023-03-19T08:46:18.090Z,33.89
2023-03-19T08:48:46.104Z,32.57
2023-03-19T08:51:13.845Z,33.49
2023-03-19T08:53:41.303Z,33.51
2023-03-19T08:56:09.452Z,34.06
2023-03-19T08:58:36.885Z,33.81
2023-03-19T09:01:10.139Z,33.33
2023-03-19T09:03:39.281Z,33.60
2023-03-19T09:06:10.299Z,32.41
2023-03-19T09:08:38.884Z,32.37
2023-03-19T09:11:06.707Z,33.06
2023-03-19T09:13:34.987Z,32.23
2023-03-19T09:16:02.607Z,32.29
2023-03-19T09:18:30.484Z,32.39
2023-03-19T09:20:58.211Z,32.46
2023-03-19T09:23:25.943Z,32.42
2023-03-19T09:25:53.929Z,31.75
2023-03-19T09:28:26.720Z,30.97
2023-03-19T09:30:55.560Z,30.71
2023-03-19T09:33:22.732Z,31.09
2023-03-19T09:35:52.439Z,30.44
2023-03-19T09:38:21.969Z,30.32
2023-03-19T09:41:03.955Z,30.63
2023-03-19T09:43:42.847Z,31.56
2023-03-19T09:46:20.586Z,31.67
2023-03-19T09:48:57.825Z,31.18
2023-03-19T09:51:36.947Z,30.79
2023-03-19T09:54:18.894Z,30.77
2023-03-19T09:56:46.591Z,30.96
2023-03-19T09:59:14.212Z,31.05
2023-03-19T10:01:46.845Z,31.03
2023-03-19T10:04:43.634Z,30.96
2023-03-19T10:07:24.973Z,30.48
2023-03-19T10:10:32.069Z,31.23
2023-03-19T10:13:11.239Z,31.59
2023-03-19T10:15:40.720Z,31.18
2023-03-19T10:18:21.577Z,30.84
2023-03-19T10:21:09.198Z,31.23
2023-03-19T10:23:55.150Z,30.83
2023-03-19T10:26:28.086Z,30.56
2023-03-19T10:29:19.966Z,30.02
2023-03-19T10:32:06.654Z,30.50
2023-03-19T10:34:45.254Z,29.95
2023-03-19T10:37:19.570Z,29.02
2023-03-19T10:39:50.661Z,29.73
2023-03-19T10:42:55.194Z,30.21
2023-03-19T10:45:30.142Z,29.32
2023-03-19T10:48:00.596Z,28.73
2023-03-19T10:50:36.234Z,28.73
2023-03-19T10:53:18.405Z,28.92
2023-03-19T10:55:57.193Z,29.42
2023-03-19T10:58:28.764Z,29.04
2023-03-19T11:01:10.001Z,28.76
2023-03-19T11:03:52.811Z,29.16
2023-03-19T11:06:36.053Z,28.91
2023-03-19T11:09:11.661Z,29.04
2023-03-19T11:11:52.880Z,28.71
2023-03-19T11:14:39.345Z,29.41
2023-03-19T11:17:43.443Z,29.22
2023-03-19T11:20:28.405Z,28.53
2023-03-19T11:22:59.395Z,27.76
2023-03-19T11:25:53.805Z,28.76
2023-03-19T11:28:26.578Z,28.83
2023-03-19T11:31:28.448Z,29.09
2023-03-19T11:34:34.920Z,28.86
2023-03-19T11:37:08.670Z,28.55
2023-03-19T11:40:01.545Z,28.32
2023-03-19T11:42:59.486Z,28.50
2023-03-19T11:45:52.837Z,28.57
2023-03-19T11:48:38.082Z,27.15
2023-03-19T11:51:39.940Z,28.03
2023-03-19T11:54:31.309Z,28.27
2023-03-19T11:57:18.589Z,28.38
2023-03-19T12:00:00.392Z,27.43
2023-03-19T12:02:48.715Z,28.16
2023-03-19T12:05:39.336Z,28.59
2023-03-19T12:08:33.525Z,28.84
2023-03-19T12:11:17.932Z,28.81
2023-03-19T12:13:53.760Z,28.01
2023-03-19T12:17:03.398Z,28.31
2023-03-19T12:20:07.172Z,28.54
2023-03-19T12:23:04.221Z,28.52
2023-03-19T12:25:57.278Z,29.44
2023-03-19T12:28:35.376Z,29.35
2023-03-19T12:31:40.823Z,29.73
2023-03-19T12:34:35.575Z,30.33
2023-03-19T12:37:18.880Z,30.46
2023-03-19T12:40:36.510Z,30.25
2023-03-19T12:43:12.726Z,30.22
2023-03-19T12:45:45.222Z,29.96
2023-03-19T12:48:29.462Z,30.00
2023-03-19T12:51:03.147Z,30.00
2023-03-19T12:53:57.632Z,29.66
2023-03-19T12:56:36.306Z,29.26
2023-03-19T12:59:27.413Z,29.09
2023-03-19T13:02:26.062Z,29.26
2023-03-19T13:04:59.394Z,28.47
2023-03-19T13:07:50.755Z,28.50
2023-03-19T13:10:21.123Z,28.84
2023-03-19T13:12:51.619Z,28.96
2023-03-19T13:15:30.303Z,29.26
2023-03-19T13:18:32.176Z,28.42
2023-03-19T13:21:18.090Z,28.54
2023-03-19T13:23:51.878Z,28.92
2023-03-19T13:26:19.740Z,29.24
2023-03-19T13:29:01.144Z,29.33
2023-03-19T13:31:33.098Z,29.38
2023-03-19T13:34:21.390Z,29.27
2023-03-19T13:37:09.857Z,29.20
2023-03-19T13:39:38.363Z,29.01
2023-03-19T13:42:26.032Z,28.56
2023-03-19T13:45:04.234Z,28.72
2023-03-19T13:47:38.301Z,29.23
2023-03-19T13:50:20.587Z,28.98
2023-03-19T13:52:53.003Z,29.07
2023-03-19T13:55:32.357Z,29.29
2023-03-19T13:58:19.445Z,29.81
2023-03-19T14:00:59.108Z,29.87
2023-03-19T14:03:31.961Z,29.50
2023-03-19T14:06:01.181Z,29.73
2023-03-19T14:08:46.948Z,29.49
2023-03-19T14:11:22.278Z,29.60
2023-03-19T14:13:52.453Z,29.65
2023-03-19T14:16:28.222Z,29.68
2023-03-19T14:18:57.818Z,29.64
2023-03-19T14:22:02.194Z,29.62
2023-03-19T14:27:18.516Z,29.96
2023-03-19T14:29:47.460Z,30.13
2023-03-19T14:32:23.256Z,30.23
2023-03-19T14:34:51.813Z,29.75
2023-03-19T14:37:35.534Z,29.70
2023-03-19T14:40:20.394Z,29.79
2023-03-19T14:43:04.927Z,30.04
2023-03-19T14:45:50.026Z,30.08
2023-03-19T14:48:53.502Z,30.03
2023-03-19T14:51:55.863Z,30.17
2023-03-19T14:54:30.760Z,29.95
2023-03-19T14:57:00.250Z,29.67
2023-03-19T14:59:38.988Z,29.66
2023-03-19T15:02:15.181Z,29.69
2023-03-19T15:04:46.128Z,29.95
2023-03-19T15:07:21.435Z,30.19
2023-03-19T15:09:53.794Z,29.99
2023-03-19T15:13:12.591Z,30.17
2023-03-19T15:16:00.952Z,30.49
2023-03-19T15:18:29.294Z,30.45
2023-03-19T15:20:57.520Z,30.46
2023-03-19T15:23:29.065Z,30.56
2023-03-19T15:26:01.328Z,30.68
2023-03-19T15:28:33.848Z,30.64
2023-03-19T15:31:26.224Z,30.66
2023-03-19T15:33:42.143Z,30.25
2023-03-19T15:36:23.726Z,30.41
2023-03-19T15:39:05.030Z,30.61
2023-03-19T15:41:39.446Z,30.70
2023-03-19T15:44:12.838Z,30.77
2023-03-19T15:46:42.875Z,31.06
2023-03-19T15:49:16.227Z,31.40
2023-03-19T15:51:49.123Z,31.72
2023-03-19T15:54:17.725Z,31.94
2023-03-19T15:56:45.849Z,32.18
2023-03-19T15:59:14.222Z,32.32
2023-03-19T16:01:41.912Z,32.51
2023-03-19T16:04:20.903Z,32.66
2023-03-19T16:06:50.283Z,32.83
2023-03-19T16:09:33.475Z,32.98
2023-03-19T16:12:01.611Z,33.14
2023-03-19T16:14:42.106Z,33.32
2023-03-19T16:17:16.869Z,33.47
2023-03-19T16:19:56.026Z,33.67
2023-03-19T16:22:32.029Z,33.85
2023-03-19T16:25:01.471Z,33.99
2023-03-19T16:27:49.417Z,34.03
2023-03-19T16:30:26.301Z,34.27
2023-03-19T16:33:06.631Z,34.71
2023-03-19T16:35:36.145Z,34.95
2023-03-19T16:38:23.112Z,35.12
2023-03-19T16:41:24.674Z,35.38
2023-03-19T16:43:54.472Z,35.53
2023-03-19T16:46:23.986Z,35.88
2023-03-19T16:48:51.339Z,35.92
2023-03-19T16:51:21.104Z,36.13
2023-03-19T16:53:49.042Z,36.73
2023-03-19T16:56:18.369Z,37.07
2023-03-19T16:58:47.701Z,37.56
2023-03-19T17:01:22.509Z,37.95
2023-03-19T17:03:50.706Z,38.37
2023-03-19T17:06:20.276Z,38.90
2023-03-19T17:08:48.541Z,39.44
2023-03-19T17:11:27.336Z,39.82
2023-03-19T17:13:58.351Z,39.98
2023-03-19T17:16:27.972Z,40.49
2023-03-19T17:18:56.647Z,40.90
2023-03-19T17:21:36.537Z,41.73
2023-03-19T17:24:19.945Z,41.91
2023-03-19T17:26:47.623Z,42.00
2023-03-19T17:29:15.179Z,42.52
2023-03-19T17:31:43.010Z,42.37
2023-03-19T17:34:20.821Z,42.77
2023-03-19T17:37:01.487Z,42.93
2023-03-19T17:39:31.065Z,43.46
2023-03-19T17:41:59.346Z,43.85
2023-03-19T17:44:27.571Z,44.15
2023-03-19T17:46:55.876Z,44.05
2023-03-19T17:49:28.418Z,44.24
2023-03-19T17:51:56.609Z,44.49
2023-03-19T17:54:28.061Z,44.50
2023-03-19T17:56:57.397Z,44.85
2023-03-19T17:59:25.564Z,45.05
2023-03-19T18:01:53.188Z,45.30
2023-03-19T18:04:21.924Z,45.68
2023-03-19T18:06:55.457Z,45.98
2023-03-19T18:09:31.990Z,46.39
2023-03-19T18:11:59.870Z,46.77
2023-03-19T18:14:27.649Z,47.46
2023-03-19T18:16:55.583Z,48.29
2023-03-19T18:19:28.713Z,49.01
2023-03-19T18:21:56.674Z,49.61
2023-03-19T18:24:24.481Z,50.28
2023-03-19T18:26:52.359Z,50.33
2023-03-19T18:29:20.939Z,50.05
2023-03-19T18:31:49.908Z,50.13
2023-03-19T18:34:18.886Z,50.45
2023-03-19T18:36:46.781Z,50.54
2023-03-19T18:39:15.795Z,50.69
2023-03-19T18:41:43.824Z,50.77
2023-03-19T18:44:12.003Z,50.96
2023-03-19T18:46:40.765Z,51.33
2023-03-19T18:49:25.061Z,51.64
2023-03-19T18:52:02.680Z,52.21
2023-03-19T18:54:23.818Z,52.53
2023-03-19T18:56:53.436Z,52.89
2023-03-19T18:59:26.166Z,52.59
2023-03-19T19:02:04.951Z,52.95
2023-03-19T19:04:32.566Z,53.46
2023-03-19T19:07:01.299Z,53.74
2023-03-19T19:09:29.148Z,53.58
2023-03-19T19:12:00.797Z,53.69
2023-03-19T19:14:29.101Z,53.80
2023-03-19T19:16:56.755Z,53.83
2023-03-19T19:19:27.083Z,54.03
2023-03-19T19:21:54.998Z,54.15
2023-03-19T19:24:25.554Z,54.11
2023-03-19T19:26:53.563Z,54.20
2023-03-19T19:29:27.681Z,54.42
2023-03-19T19:31:55.792Z,54.59
2023-03-19T19:34:23.876Z,54.57
2023-03-19T19:36:53.697Z,54.76
2023-03-19T19:39:22.085Z,54.88
2023-03-19T19:41:51.566Z,55.17
2023-03-19T19:44:21.800Z,55.68
2023-03-19T19:46:51.727Z,55.89
2023-03-19T19:49:23.075Z,56.25
2023-03-19T19:51:51.224Z,56.76
2023-03-19T19:54:20.834Z,56.95
2023-03-19T19:56:49.342Z,57.09
2023-03-19T19:59:17.532Z,56.99
2023-03-19T20:01:53.382Z,57.07
2023-03-19T20:04:21.166Z,57.02
2023-03-19T20:06:50.632Z,57.05
2023-03-19T20:09:18.463Z,57.12
2023-03-19T20:11:46.348Z,57.15
2023-03-19T20:14:14.189Z,57.61
2023-03-19T20:16:43.728Z,57.60
2023-03-19T20:19:18.648Z,57.63
2023-03-19T20:21:46.780Z,57.74
2023-03-19T20:24:14.717Z,57.81
2023-03-19T20:26:43.485Z,58.36
2023-03-19T20:29:18.156Z,58.51
2023-03-19T20:31:47.813Z,58.67
2023-03-19T20:34:22.471Z,58.76
2023-03-19T20:36:45.212Z,58.90
2023-03-19T20:39:12.941Z,58.90
2023-03-19T20:41:40.820Z,58.98
2023-03-19T20:44:16.918Z,59.03
2023-03-19T20:46:45.332Z,59.40
2023-03-19T20:49:14.877Z,59.91
2023-03-19T20:51:43.477Z,59.85
2023-03-19T20:54:11.221Z,60.01
2023-03-19T20:56:40.291Z,59.87
2023-03-19T20:59:11.354Z,60.04
2023-03-19T21:01:39.190Z,60.05
2023-03-19T21:04:12.274Z,60.25
2023-03-19T21:06:52.625Z,60.43
2023-03-19T21:09:11.040Z,60.48
2023-03-19T21:11:44.386Z,60.57
2023-03-19T21:14:15.596Z,60.92
2023-03-19T21:16:43.322Z,60.83
2023-03-19T21:19:12.221Z,61.05
2023-03-19T21:21:42.021Z,61.42
2023-03-19T21:24:17.598Z,62.14
2023-03-19T21:26:46.057Z,61.89
2023-03-19T21:29:30.504Z,62.46
2023-03-19T21:31:58.668Z,62.66
2023-03-19T21:34:27.839Z,62.60
2023-03-19T21:36:55.533Z,62.72
2023-03-19T21:39:23.029Z,62.91
2023-03-19T21:41:50.792Z,62.80
2023-03-19T21:44:22.252Z,62.94
2023-03-19T21:46:51.076Z,62.95
2023-03-19T21:49:18.872Z,62.93
2023-03-19T21:51:46.700Z,63.05
2023-03-19T21:54:15.207Z,63.46
2023-03-19T21:56:45.349Z,63.40
2023-03-19T21:59:18.161Z,63.27
2023-03-19T22:01:46.255Z,63.27
2023-03-19T22:04:14.223Z,63.40
2023-03-19T22:06:42.557Z,63.56
2023-03-19T22:09:10.427Z,63.45
2023-03-19T22:11:40.330Z,63.40
2023-03-19T22:14:18.576Z,63.41
2023-03-19T22:16:52.033Z,63.39
2023-03-19T22:19:18.738Z,63.46
2023-03-19T22:21:47.204Z,63.39
2023-03-19T22:24:15.332Z,63.51
2023-03-19T22:26:44.396Z,63.50
2023-03-19T22:29:19.881Z,63.65
2023-03-19T22:31:51.973Z,63.59
2023-03-19T22:34:24.133Z,63.93
2023-03-19T22:36:51.731Z,64.32
2023-03-19T22:39:19.332Z,64.13
2023-03-19T22:41:48.975Z,64.22
2023-03-19T22:44:24.791Z,64.16
2023-03-19T22:46:54.166Z,64.09
2023-03-19T22:49:23.859Z,64.20
2023-03-19T22:51:51.698Z,64.14
2023-03-19T22:54:19.452Z,64.47
2023-03-19T22:56:47.165Z,64.70
2023-03-19T22:59:15.539Z,64.96
2023-03-19T23:01:47.497Z,64.94
2023-03-19T23:04:25.955Z,64.84
2023-03-19T23:06:56.599Z,65.09
2023-03-19T23:09:31.798Z,65.13
2023-03-19T23:12:00.476Z,65.22
2023-03-19T23:14:30.858Z,65.28
2023-03-19T23:17:02.848Z,65.27
2023-03-19T23:19:35.059Z,65.28
2023-03-19T23:22:06.118Z,65.60
2023-03-19T23:24:35.191Z,65.53
2023-03-19T23:27:03.426Z,65.52
2023-03-19T23:29:39.313Z,65.37
2023-03-19T23:32:08.886Z,65.43
2023-03-19T23:34:49.737Z,65.24
2023-03-19T23:37:06.505Z,65.27
2023-03-19T23:39:34.232Z,65.30
2023-03-19T23:42:02.003Z,65.23
2023-03-19T23:44:29.948Z,65.39
2023-03-19T23:47:01.903Z,65.51
2023-03-19T23:49:32.707Z,65.50
2023-03-19T23:52:03.080Z,65.54
2023-03-19T23:54:41.855Z,65.88
2023-03-19T23:57:14.249Z,65.74
2023-03-19T23:59:44.411Z,66.13
